sensor_id;sensor_type;location;lat;lon;timestamp;P1;durP1;ratioP1;P2;durP2;ratioP2
76447;SDS011;65284;51.040;13.722;2024-03-06T00:00:11;35.28;;;15.60;;
76447;SDS011;65284;51.040;13.722;2024-03-06T00:02:38;35.05;;;15.77;;
76447;SDS011;65284;51.040;13.722;2024-03-06T00:05:05;34.95;;;15.65;;
76447;SDS011;65284;51.040;13.722;2024-03-06T00:07:34;35.45;;;15.90;;
76447;SDS011;65284;51.040;13.722;2024-03-06T00:10:01;34.17;;;15.60;;
76447;SDS011;65284;51.040;13.722;2024-03-06T00:12:27;37.92;;;15.95;;
76447;SDS011;65284;51.040;13.722;2024-03-06T00:14:54;35.75;;;15.40;;
76447;SDS011;65284;51.040;13.722;2024-03-06T00:17:20;36.38;;;16.48;;
76447;SDS011;65284;51.040;13.722;2024-03-06T00:19:47;36.75;;;16.65;;
76447;SDS011;65284;51.040;13.722;2024-03-06T00:22:13;32.63;;;15.20;;
76447;SDS011;65284;51.040;13.722;2024-03-06T00:24:39;37.25;;;16.35;;
76447;SDS011;65284;51.040;13.722;2024-03-06T00:27:06;35.40;;;15.82;;
76447;SDS011;65284;51.040;13.722;2024-03-06T00:29:32;37.75;;;16.60;;
76447;SDS011;65284;51.040;13.722;2024-03-06T00:31:59;38.22;;;16.75;;
76447;SDS011;65284;51.040;13.722;2024-03-06T00:34:25;36.53;;;16.70;;
76447;SDS011;65284;51.040;13.722;2024-03-06T00:36:53;36.25;;;17.00;;
76447;SDS011;65284;51.040;13.722;2024-03-06T00:39:20;36.92;;;16.48;;
76447;SDS011;65284;51.040;13.722;2024-03-06T00:41:47;34.90;;;16.05;;
76447;SDS011;65284;51.040;13.722;2024-03-06T00:44:14;37.75;;;17.05;;
76447;SDS011;65284;51.040;13.722;2024-03-06T00:46:41;44.53;;;20.13;;
76447;SDS011;65284;51.040;13.722;2024-03-06T00:49:08;41.80;;;18.40;;
76447;SDS011;65284;51.040;13.722;2024-03-06T00:51:34;37.45;;;16.30;;
76447;SDS011;65284;51.040;13.722;2024-03-06T00:54:13;35.08;;;15.88;;
76447;SDS011;65284;51.040;13.722;2024-03-06T00:56:40;39.58;;;16.33;;
76447;SDS011;65284;51.040;13.722;2024-03-06T00:59:06;34.60;;;15.32;;
76447;SDS011;65284;51.040;13.722;2024-03-06T01:01:33;34.90;;;15.45;;
76447;SDS011;65284;51.040;13.722;2024-03-06T01:03:59;36.72;;;16.23;;
76447;SDS011;65284;51.040;13.722;2024-03-06T01:06:26;35.85;;;16.55;;
76447;SDS011;65284;51.040;13.722;2024-03-06T01:08:53;38.88;;;16.35;;
76447;SDS011;65284;51.040;13.722;2024-03-06T01:11:20;38.30;;;16.05;;
76447;SDS011;65284;51.040;13.722;2024-03-06T01:13:47;37.22;;;15.95;;
76447;SDS011;65284;51.040;13.722;2024-03-06T01:16:14;37.50;;;16.35;;
76447;SDS011;65284;51.040;13.722;2024-03-06T01:18:40;35.97;;;15.50;;
76447;SDS011;65284;51.040;13.722;2024-03-06T01:21:07;34.95;;;16.23;;
76447;SDS011;65284;51.040;13.722;2024-03-06T01:23:34;37.05;;;16.65;;
76447;SDS011;65284;51.040;13.722;2024-03-06T01:26:00;37.90;;;17.50;;
76447;SDS011;65284;51.040;13.722;2024-03-06T01:28:27;39.95;;;16.45;;
76447;SDS011;65284;51.040;13.722;2024-03-06T01:30:53;37.28;;;15.98;;
76447;SDS011;65284;51.040;13.722;2024-03-06T01:33:20;36.75;;;16.35;;
76447;SDS011;65284;51.040;13.722;2024-03-06T01:35:48;38.50;;;16.70;;
76447;SDS011;65284;51.040;13.722;2024-03-06T01:38:14;41.53;;;17.25;;
76447;SDS011;65284;51.040;13.722;2024-03-06T01:40:42;36.53;;;16.60;;
76447;SDS011;65284;51.040;13.722;2024-03-06T01:43:23;38.88;;;16.23;;
76447;SDS011;65284;51.040;13.722;2024-03-06T01:48:21;36.97;;;15.98;;
76447;SDS011;65284;51.040;13.722;2024-03-06T01:50:54;39.72;;;16.80;;
76447;SDS011;65284;51.040;13.722;2024-03-06T01:53:23;35.78;;;16.30;;
76447;SDS011;65284;51.040;13.722;2024-03-06T01:58:20;35.13;;;15.68;;
76447;SDS011;65284;51.040;13.722;2024-03-06T02:00:50;36.55;;;17.48;;
76447;SDS011;65284;51.040;13.722;2024-03-06T02:03:17;45.25;;;18.95;;
76447;SDS011;65284;51.040;13.722;2024-03-06T02:05:46;58.30;;;24.13;;
76447;SDS011;65284;51.040;13.722;2024-03-06T02:08:14;57.08;;;26.17;;
76447;SDS011;65284;51.040;13.722;2024-03-06T02:10:41;53.72;;;23.95;;
76447;SDS011;65284;51.040;13.722;2024-03-06T02:13:07;52.08;;;23.20;;
76447;SDS011;65284;51.040;13.722;2024-03-06T02:15:35;44.53;;;20.48;;
76447;SDS011;65284;51.040;13.722;2024-03-06T02:18:05;45.65;;;20.20;;
76447;SDS011;65284;51.040;13.722;2024-03-06T02:20:32;47.95;;;20.75;;
76447;SDS011;65284;51.040;13.722;2024-03-06T02:23:00;44.53;;;19.05;;
76447;SDS011;65284;51.040;13.722;2024-03-06T02:25:26;39.83;;;17.80;;
76447;SDS011;65284;51.040;13.722;2024-03-06T02:27:53;39.38;;;17.38;;
76447;SDS011;65284;51.040;13.722;2024-03-06T02:30:19;41.05;;;17.35;;
76447;SDS011;65284;51.040;13.722;2024-03-06T02:32:49;38.30;;;17.55;;
76447;SDS011;65284;51.040;13.722;2024-03-06T02:35:16;40.13;;;17.80;;
76447;SDS011;65284;51.040;13.722;2024-03-06T02:37:44;36.65;;;17.17;;
76447;SDS011;65284;51.040;13.722;2024-03-06T02:40:11;37.30;;;17.02;;
76447;SDS011;65284;51.040;13.722;2024-03-06T02:42:37;39.25;;;16.80;;
76447;SDS011;65284;51.040;13.722;2024-03-06T02:45:05;36.05;;;16.75;;
76447;SDS011;65284;51.040;13.722;2024-03-06T02:47:33;43.55;;;17.10;;
76447;SDS011;65284;51.040;13.722;2024-03-06T02:50:00;41.00;;;16.83;;
76447;SDS011;65284;51.040;13.722;2024-03-06T02:52:26;42.78;;;17.48;;
76447;SDS011;65284;51.040;13.722;2024-03-06T02:54:53;39.80;;;17.52;;
76447;SDS011;65284;51.040;13.722;2024-03-06T02:57:19;39.97;;;17.25;;
76447;SDS011;65284;51.040;13.722;2024-03-06T02:59:46;39.17;;;16.42;;
76447;SDS011;65284;51.040;13.722;2024-03-06T03:02:12;40.78;;;17.42;;
76447;SDS011;65284;51.040;13.722;2024-03-06T03:04:39;39.72;;;17.23;;
76447;SDS011;65284;51.040;13.722;2024-03-06T03:07:05;38.92;;;16.80;;
76447;SDS011;65284;51.040;13.722;2024-03-06T03:09:32;38.05;;;17.23;;
76447;SDS011;65284;51.040;13.722;2024-03-06T03:11:58;36.90;;;16.50;;
76447;SDS011;65284;51.040;13.722;2024-03-06T03:14:25;39.08;;;17.33;;
76447;SDS011;65284;51.040;13.722;2024-03-06T03:16:51;39.83;;;16.88;;
76447;SDS011;65284;51.040;13.722;2024-03-06T03:19:18;39.03;;;17.40;;
76447;SDS011;65284;51.040;13.722;2024-03-06T03:21:44;42.08;;;17.35;;
76447;SDS011;65284;51.040;13.722;2024-03-06T03:24:11;38.67;;;17.75;;
76447;SDS011;65284;51.040;13.722;2024-03-06T03:26:37;39.45;;;17.80;;
76447;SDS011;65284;51.040;13.722;2024-03-06T03:29:04;41.78;;;18.17;;
76447;SDS011;65284;51.040;13.722;2024-03-06T03:31:31;39.95;;;18.08;;
76447;SDS011;65284;51.040;13.722;2024-03-06T03:33:59;43.97;;;18.10;;
76447;SDS011;65284;51.040;13.722;2024-03-06T03:36:25;42.67;;;18.30;;
76447;SDS011;65284;51.040;13.722;2024-03-06T03:38:52;40.17;;;17.70;;
76447;SDS011;65284;51.040;13.722;2024-03-06T03:41:18;39.22;;;17.40;;
76447;SDS011;65284;51.040;13.722;2024-03-06T03:43:45;40.72;;;17.90;;
76447;SDS011;65284;51.040;13.722;2024-03-06T03:46:11;40.85;;;18.02;;
76447;SDS011;65284;51.040;13.722;2024-03-06T03:48:39;43.78;;;19.67;;
76447;SDS011;65284;51.040;13.722;2024-03-06T03:51:06;43.80;;;18.45;;
76447;SDS011;65284;51.040;13.722;2024-03-06T03:53:34;42.80;;;18.30;;
76447;SDS011;65284;51.040;13.722;2024-03-06T03:56:01;41.70;;;17.60;;
76447;SDS011;65284;51.040;13.722;2024-03-06T03:58:29;39.97;;;18.55;;
76447;SDS011;65284;51.040;13.722;2024-03-06T04:00:56;46.47;;;17.92;;
76447;SDS011;65284;51.040;13.722;2024-03-06T04:03:22;39.53;;;17.77;;
76447;SDS011;65284;51.040;13.722;2024-03-06T04:05:50;43.10;;;17.73;;
76447;SDS011;65284;51.040;13.722;2024-03-06T04:08:17;40.47;;;17.77;;
76447;SDS011;65284;51.040;13.722;2024-03-06T04:10:44;41.40;;;17.80;;
76447;SDS011;65284;51.040;13.722;2024-03-06T04:13:11;40.72;;;17.17;;
76447;SDS011;65284;51.040;13.722;2024-03-06T04:15:38;40.30;;;16.80;;
76447;SDS011;65284;51.040;13.722;2024-03-06T04:18:05;44.08;;;18.35;;
76447;SDS011;65284;51.040;13.722;2024-03-06T04:20:31;42.13;;;17.38;;
76447;SDS011;65284;51.040;13.722;2024-03-06T04:22:58;38.30;;;16.70;;
76447;SDS011;65284;51.040;13.722;2024-03-06T04:25:24;42.92;;;17.55;;
76447;SDS011;65284;51.040;13.722;2024-03-06T04:27:51;41.17;;;17.05;;
76447;SDS011;65284;51.040;13.722;2024-03-06T04:30:17;42.22;;;17.33;;
76447;SDS011;65284;51.040;13.722;2024-03-06T04:32:44;41.03;;;17.95;;
76447;SDS011;65284;51.040;13.722;2024-03-06T04:35:10;43.25;;;18.02;;
76447;SDS011;65284;51.040;13.722;2024-03-06T04:37:37;43.92;;;17.98;;
76447;SDS011;65284;51.040;13.722;2024-03-06T04:40:04;48.30;;;18.52;;
76447;SDS011;65284;51.040;13.722;2024-03-06T04:42:34;43.05;;;18.25;;
76447;SDS011;65284;51.040;13.722;2024-03-06T04:45:02;44.10;;;18.45;;
76447;SDS011;65284;51.040;13.722;2024-03-06T04:47:29;44.92;;;18.08;;
76447;SDS011;65284;51.040;13.722;2024-03-06T04:49:56;41.88;;;17.60;;
76447;SDS011;65284;51.040;13.722;2024-03-06T04:52:24;45.05;;;19.27;;
76447;SDS011;65284;51.040;13.722;2024-03-06T04:54:50;48.60;;;18.42;;
76447;SDS011;65284;51.040;13.722;2024-03-06T04:57:17;42.92;;;18.45;;
76447;SDS011;65284;51.040;13.722;2024-03-06T04:59:43;45.40;;;18.55;;
76447;SDS011;65284;51.040;13.722;2024-03-06T05:02:09;45.50;;;18.65;;
76447;SDS011;65284;51.040;13.722;2024-03-06T05:04:36;45.20;;;19.00;;
76447;SDS011;65284;51.040;13.722;2024-03-06T05:07:20;43.45;;;17.73;;
76447;SDS011;65284;51.040;13.722;2024-03-06T05:10:04;40.63;;;17.20;;
76447;SDS011;65284;51.040;13.722;2024-03-06T05:12:51;46.72;;;18.92;;
76447;SDS011;65284;51.040;13.722;2024-03-06T05:15:35;45.08;;;18.50;;
76447;SDS011;65284;51.040;13.722;2024-03-06T05:18:19;39.85;;;17.27;;
76447;SDS011;65284;51.040;13.722;2024-03-06T05:21:04;49.25;;;18.92;;
76447;SDS011;65284;51.040;13.722;2024-03-06T05:23:48;42.28;;;17.38;;
76447;SDS011;65284;51.040;13.722;2024-03-06T05:26:32;42.30;;;18.00;;
76447;SDS011;65284;51.040;13.722;2024-03-06T05:29:16;39.92;;;17.40;;
76447;SDS011;65284;51.040;13.722;2024-03-06T05:32:00;39.10;;;17.88;;
76447;SDS011;65284;51.040;13.722;2024-03-06T05:34:44;44.72;;;17.85;;
76447;SDS011;65284;51.040;13.722;2024-03-06T05:37:28;46.05;;;17.98;;
76447;SDS011;65284;51.040;13.722;2024-03-06T05:40:12;43.95;;;17.75;;
76447;SDS011;65284;51.040;13.722;2024-03-06T05:42:56;43.55;;;18.10;;
76447;SDS011;65284;51.040;13.722;2024-03-06T05:45:40;48.97;;;19.23;;
76447;SDS011;65284;51.040;13.722;2024-03-06T05:48:24;48.33;;;18.40;;
76447;SDS011;65284;51.040;13.722;2024-03-06T05:51:08;44.60;;;18.33;;
76447;SDS011;65284;51.040;13.722;2024-03-06T05:53:53;50.70;;;19.63;;
76447;SDS011;65284;51.040;13.722;2024-03-06T05:56:37;51.83;;;19.15;;
76447;SDS011;65284;51.040;13.722;2024-03-06T05:59:22;48.33;;;18.45;;
76447;SDS011;65284;51.040;13.722;2024-03-06T06:01:50;50.03;;;19.00;;
76447;SDS011;65284;51.040;13.722;2024-03-06T06:04:16;49.85;;;19.55;;
76447;SDS011;65284;51.040;13.722;2024-03-06T06:06:43;48.75;;;19.83;;
76447;SDS011;65284;51.040;13.722;2024-03-06T06:09:09;50.08;;;20.02;;
76447;SDS011;65284;51.040;13.722;2024-03-06T06:11:42;52.72;;;19.52;;
76447;SDS011;65284;51.040;13.722;2024-03-06T06:14:09;52.47;;;20.45;;
76447;SDS011;65284;51.040;13.722;2024-03-06T06:16:37;50.67;;;19.25;;
76447;SDS011;65284;51.040;13.722;2024-03-06T06:19:04;53.40;;;19.73;;
76447;SDS011;65284;51.040;13.722;2024-03-06T06:21:32;48.53;;;20.02;;
76447;SDS011;65284;51.040;13.722;2024-03-06T06:23:58;50.42;;;20.20;;
76447;SDS011;65284;51.040;13.722;2024-03-06T06:26:25;46.28;;;18.48;;
76447;SDS011;65284;51.040;13.722;2024-03-06T06:28:51;49.03;;;19.75;;
76447;SDS011;65284;51.040;13.722;2024-03-06T06:31:18;47.55;;;18.85;;
76447;SDS011;65284;51.040;13.722;2024-03-06T06:33:44;49.40;;;19.55;;
76447;SDS011;65284;51.040;13.722;2024-03-06T06:36:12;48.47;;;19.73;;
76447;SDS011;65284;51.040;13.722;2024-03-06T06:38:38;51.63;;;20.27;;
76447;SDS011;65284;51.040;13.722;2024-03-06T06:41:05;49.83;;;19.45;;
76447;SDS011;65284;51.040;13.722;2024-03-06T06:43:31;51.33;;;21.33;;
76447;SDS011;65284;51.040;13.722;2024-03-06T06:45:58;48.42;;;20.45;;
76447;SDS011;65284;51.040;13.722;2024-03-06T06:48:27;48.65;;;20.08;;
76447;SDS011;65284;51.040;13.722;2024-03-06T06:50:53;50.97;;;21.05;;
76447;SDS011;65284;51.040;13.722;2024-03-06T06:53:20;51.53;;;20.38;;
76447;SDS011;65284;51.040;13.722;2024-03-06T06:55:46;53.22;;;21.13;;
76447;SDS011;65284;51.040;13.722;2024-03-06T06:58:12;56.35;;;20.17;;
76447;SDS011;65284;51.040;13.722;2024-03-06T07:00:39;52.67;;;20.80;;
76447;SDS011;65284;51.040;13.722;2024-03-06T07:03:06;49.90;;;20.60;;
76447;SDS011;65284;51.040;13.722;2024-03-06T07:05:33;53.70;;;21.15;;
76447;SDS011;65284;51.040;13.722;2024-03-06T07:07:59;52.40;;;21.48;;
76447;SDS011;65284;51.040;13.722;2024-03-06T07:10:26;53.38;;;21.02;;
76447;SDS011;65284;51.040;13.722;2024-03-06T07:12:53;53.90;;;21.63;;
76447;SDS011;65284;51.040;13.722;2024-03-06T07:15:19;52.22;;;20.73;;
76447;SDS011;65284;51.040;13.722;2024-03-06T07:17:46;56.15;;;21.48;;
76447;SDS011;65284;51.040;13.722;2024-03-06T07:20:13;52.85;;;21.92;;
76447;SDS011;65284;51.040;13.722;2024-03-06T07:22:40;48.30;;;20.77;;
76447;SDS011;65284;51.040;13.722;2024-03-06T07:25:06;53.65;;;22.10;;
76447;SDS011;65284;51.040;13.722;2024-03-06T07:27:33;54.63;;;21.70;;
76447;SDS011;65284;51.040;13.722;2024-03-06T07:29:59;54.10;;;21.95;;
76447;SDS011;65284;51.040;13.722;2024-03-06T07:32:26;52.65;;;21.67;;
76447;SDS011;65284;51.040;13.722;2024-03-06T07:34:52;59.15;;;22.52;;
76447;SDS011;65284;51.040;13.722;2024-03-06T07:37:19;54.10;;;21.58;;
76447;SDS011;65284;51.040;13.722;2024-03-06T07:39:45;57.25;;;22.77;;
76447;SDS011;65284;51.040;13.722;2024-03-06T07:42:14;55.30;;;23.10;;
76447;SDS011;65284;51.040;13.722;2024-03-06T07:44:41;53.30;;;22.73;;
76447;SDS011;65284;51.040;13.722;2024-03-06T07:47:08;54.55;;;21.38;;
76447;SDS011;65284;51.040;13.722;2024-03-06T07:49:35;56.08;;;22.50;;
76447;SDS011;65284;51.040;13.722;2024-03-06T07:52:01;59.33;;;23.63;;
76447;SDS011;65284;51.040;13.722;2024-03-06T07:54:28;58.72;;;22.92;;
76447;SDS011;65284;51.040;13.722;2024-03-06T07:56:54;56.20;;;22.83;;
76447;SDS011;65284;51.040;13.722;2024-03-06T07:59:21;55.53;;;22.45;;
76447;SDS011;65284;51.040;13.722;2024-03-06T08:01:47;56.05;;;22.83;;
76447;SDS011;65284;51.040;13.722;2024-03-06T08:04:16;57.25;;;23.75;;
76447;SDS011;65284;51.040;13.722;2024-03-06T08:06:43;57.22;;;23.02;;
76447;SDS011;65284;51.040;13.722;2024-03-06T08:09:09;57.58;;;23.50;;
76447;SDS011;65284;51.040;13.722;2024-03-06T08:11:37;57.92;;;23.00;;
76447;SDS011;65284;51.040;13.722;2024-03-06T08:14:05;58.72;;;23.25;;
76447;SDS011;65284;51.040;13.722;2024-03-06T08:16:34;56.22;;;23.27;;
76447;SDS011;65284;51.040;13.722;2024-03-06T08:19:02;59.63;;;23.98;;
76447;SDS011;65284;51.040;13.722;2024-03-06T08:21:29;65.15;;;26.25;;
76447;SDS011;65284;51.040;13.722;2024-03-06T08:23:55;67.63;;;27.13;;
76447;SDS011;65284;51.040;13.722;2024-03-06T08:26:22;58.60;;;23.77;;
76447;SDS011;65284;51.040;13.722;2024-03-06T08:28:49;53.85;;;23.33;;
76447;SDS011;65284;51.040;13.722;2024-03-06T08:31:15;59.45;;;23.80;;
76447;SDS011;65284;51.040;13.722;2024-03-06T08:33:42;68.75;;;27.88;;
76447;SDS011;65284;51.040;13.722;2024-03-06T08:36:10;57.15;;;24.05;;
76447;SDS011;65284;51.040;13.722;2024-03-06T08:38:37;57.25;;;23.90;;
76447;SDS011;65284;51.040;13.722;2024-03-06T08:41:08;56.28;;;23.20;;
76447;SDS011;65284;51.040;13.722;2024-03-06T08:43:35;54.00;;;24.40;;
76447;SDS011;65284;51.040;13.722;2024-03-06T08:46:02;58.13;;;23.75;;
76447;SDS011;65284;51.040;13.722;2024-03-06T08:48:32;57.58;;;23.27;;
76447;SDS011;65284;51.040;13.722;2024-03-06T08:50:58;56.30;;;23.67;;
76447;SDS011;65284;51.040;13.722;2024-03-06T08:53:27;56.63;;;23.33;;
76447;SDS011;65284;51.040;13.722;2024-03-06T08:55:54;61.88;;;23.95;;
76447;SDS011;65284;51.040;13.722;2024-03-06T08:58:20;60.42;;;24.13;;
76447;SDS011;65284;51.040;13.722;2024-03-06T09:00:47;59.70;;;24.42;;
76447;SDS011;65284;51.040;13.722;2024-03-06T09:03:15;55.30;;;23.30;;
76447;SDS011;65284;51.040;13.722;2024-03-06T09:05:41;60.60;;;23.92;;
76447;SDS011;65284;51.040;13.722;2024-03-06T09:08:08;60.65;;;23.95;;
76447;SDS011;65284;51.040;13.722;2024-03-06T09:10:36;55.03;;;23.17;;
76447;SDS011;65284;51.040;13.722;2024-03-06T09:13:02;62.80;;;23.40;;
76447;SDS011;65284;51.040;13.722;2024-03-06T09:15:29;59.60;;;24.10;;
76447;SDS011;65284;51.040;13.722;2024-03-06T09:17:55;57.47;;;23.35;;
76447;SDS011;65284;51.040;13.722;2024-03-06T09:20:21;57.50;;;22.77;;
76447;SDS011;65284;51.040;13.722;2024-03-06T09:22:50;52.40;;;22.50;;
76447;SDS011;65284;51.040;13.722;2024-03-06T09:25:20;54.55;;;24.40;;
76447;SDS011;65284;51.040;13.722;2024-03-06T09:27:55;62.85;;;24.80;;
76447;SDS011;65284;51.040;13.722;2024-03-06T09:30:21;59.38;;;24.48;;
76447;SDS011;65284;51.040;13.722;2024-03-06T09:32:50;55.53;;;22.52;;
76447;SDS011;65284;51.040;13.722;2024-03-06T09:35:17;54.60;;;23.38;;
76447;SDS011;65284;51.040;13.722;2024-03-06T09:37:44;59.42;;;23.83;;
76447;SDS011;65284;51.040;13.722;2024-03-06T09:40:19;52.83;;;23.30;;
76447;SDS011;65284;51.040;13.722;2024-03-06T09:42:48;54.33;;;23.30;;
76447;SDS011;65284;51.040;13.722;2024-03-06T09:45:16;50.22;;;21.90;;
76447;SDS011;65284;51.040;13.722;2024-03-06T09:47:43;51.80;;;22.58;;
76447;SDS011;65284;51.040;13.722;2024-03-06T09:50:10;49.30;;;22.50;;
76447;SDS011;65284;51.040;13.722;2024-03-06T09:52:42;51.17;;;22.27;;
76447;SDS011;65284;51.040;13.722;2024-03-06T09:55:12;49.22;;;22.60;;
76447;SDS011;65284;51.040;13.722;2024-03-06T09:57:40;49.03;;;21.65;;
76447;SDS011;65284;51.040;13.722;2024-03-06T10:00:07;49.85;;;22.73;;
76447;SDS011;65284;51.040;13.722;2024-03-06T10:02:37;50.83;;;22.73;;
76447;SDS011;65284;51.040;13.722;2024-03-06T10:05:21;50.10;;;22.10;;
76447;SDS011;65284;51.040;13.722;2024-03-06T10:07:49;53.20;;;22.13;;
76447;SDS011;65284;51.040;13.722;2024-03-06T10:10:17;53.80;;;22.48;;
76447;SDS011;65284;51.040;13.722;2024-03-06T10:12:45;51.13;;;22.05;;
76447;SDS011;65284;51.040;13.722;2024-03-06T10:15:11;52.58;;;23.33;;
76447;SDS011;65284;51.040;13.722;2024-03-06T10:17:38;50.20;;;22.40;;
76447;SDS011;65284;51.040;13.722;2024-03-06T10:20:16;52.47;;;22.30;;
76447;SDS011;65284;51.040;13.722;2024-03-06T10:22:50;49.40;;;21.92;;
76447;SDS011;65284;51.040;13.722;2024-03-06T10:25:24;48.85;;;21.83;;
76447;SDS011;65284;51.040;13.722;2024-03-06T10:30:29;49.08;;;20.90;;
76447;SDS011;65284;51.040;13.722;2024-03-06T10:32:57;53.40;;;21.88;;
76447;SDS011;65284;51.040;13.722;2024-03-06T10:35:24;49.58;;;22.15;;
76447;SDS011;65284;51.040;13.722;2024-03-06T10:37:52;51.85;;;23.20;;
76447;SDS011;65284;51.040;13.722;2024-03-06T10:40:20;51.03;;;21.83;;
76447;SDS011;65284;51.040;13.722;2024-03-06T10:42:49;51.88;;;22.10;;
76447;SDS011;65284;51.040;13.722;2024-03-06T10:45:15;54.88;;;23.75;;
76447;SDS011;65284;51.040;13.722;2024-03-06T10:47:46;52.17;;;22.00;;
76447;SDS011;65284;51.040;13.722;2024-03-06T10:50:16;51.45;;;21.20;;
76447;SDS011;65284;51.040;13.722;2024-03-06T10:52:44;52.10;;;21.85;;
76447;SDS011;65284;51.040;13.722;2024-03-06T10:55:13;50.05;;;21.83;;
76447;SDS011;65284;51.040;13.722;2024-03-06T10:57:39;54.45;;;22.90;;
76447;SDS011;65284;51.040;13.722;2024-03-06T11:00:06;49.15;;;21.35;;
76447;SDS011;65284;51.040;13.722;2024-03-06T11:02:33;51.78;;;21.77;;
76447;SDS011;65284;51.040;13.722;2024-03-06T11:05:02;49.70;;;21.55;;
76447;SDS011;65284;51.040;13.722;2024-03-06T11:07:31;47.58;;;20.95;;
76447;SDS011;65284;51.040;13.722;2024-03-06T11:09:58;45.55;;;20.10;;
76447;SDS011;65284;51.040;13.722;2024-03-06T11:12:35;43.17;;;18.50;;
76447;SDS011;65284;51.040;13.722;2024-03-06T11:15:09;45.55;;;19.90;;
76447;SDS011;65284;51.040;13.722;2024-03-06T11:17:43;45.72;;;20.08;;
76447;SDS011;65284;51.040;13.722;2024-03-06T11:28:19;47.58;;;19.75;;
76447;SDS011;65284;51.040;13.722;2024-03-06T11:30:48;46.78;;;20.33;;
76447;SDS011;65284;51.040;13.722;2024-03-06T11:33:22;45.25;;;19.10;;
76447;SDS011;65284;51.040;13.722;2024-03-06T11:38:47;46.95;;;19.52;;
76447;SDS011;65284;51.040;13.722;2024-03-06T11:41:22;48.35;;;20.05;;
76447;SDS011;65284;51.040;13.722;2024-03-06T11:43:52;46.75;;;19.67;;
76447;SDS011;65284;51.040;13.722;2024-03-06T11:46:20;47.53;;;20.05;;
76447;SDS011;65284;51.040;13.722;2024-03-06T11:48:51;44.42;;;18.55;;
76447;SDS011;65284;51.040;13.722;2024-03-06T11:51:19;44.50;;;18.15;;
76447;SDS011;65284;51.040;13.722;2024-03-06T11:53:48;41.65;;;18.27;;
76447;SDS011;65284;51.040;13.722;2024-03-06T11:56:19;43.58;;;18.88;;
76447;SDS011;65284;51.040;13.722;2024-03-06T11:58:46;45.05;;;20.65;;
76447;SDS011;65284;51.040;13.722;2024-03-06T12:01:15;47.53;;;19.83;;
76447;SDS011;65284;51.040;13.722;2024-03-06T12:03:43;45.97;;;20.45;;
76447;SDS011;65284;51.040;13.722;2024-03-06T12:06:09;50.10;;;21.35;;
76447;SDS011;65284;51.040;13.722;2024-03-06T12:08:36;49.80;;;21.58;;
76447;SDS011;65284;51.040;13.722;2024-03-06T12:11:06;47.50;;;20.05;;
76447;SDS011;65284;51.040;13.722;2024-03-06T12:13:34;51.05;;;21.17;;
76447;SDS011;65284;51.040;13.722;2024-03-06T12:16:05;52.50;;;22.17;;
76447;SDS011;65284;51.040;13.722;2024-03-06T12:18:33;51.30;;;21.95;;
76447;SDS011;65284;51.040;13.722;2024-03-06T12:21:01;49.08;;;21.98;;
76447;SDS011;65284;51.040;13.722;2024-03-06T12:23:29;51.13;;;21.40;;
76447;SDS011;65284;51.040;13.722;2024-03-06T12:26:02;51.75;;;21.85;;
76447;SDS011;65284;51.040;13.722;2024-03-06T12:28:32;44.85;;;19.65;;
76447;SDS011;65284;51.040;13.722;2024-03-06T12:30:58;45.15;;;19.33;;
76447;SDS011;65284;51.040;13.722;2024-03-06T12:33:28;44.80;;;19.70;;
76447;SDS011;65284;51.040;13.722;2024-03-06T12:38:32;39.78;;;16.92;;
76447;SDS011;65284;51.040;13.722;2024-03-06T12:40:59;42.25;;;17.40;;
76447;SDS011;65284;51.040;13.722;2024-03-06T12:43:26;42.58;;;17.60;;
76447;SDS011;65284;51.040;13.722;2024-03-06T12:45:54;45.25;;;18.27;;
76447;SDS011;65284;51.040;13.722;2024-03-06T12:48:23;43.95;;;18.73;;
76447;SDS011;65284;51.040;13.722;2024-03-06T12:50:51;44.58;;;19.20;;
76447;SDS011;65284;51.040;13.722;2024-03-06T12:53:18;38.25;;;17.58;;
76447;SDS011;65284;51.040;13.722;2024-03-06T12:55:45;48.00;;;18.90;;
76447;SDS011;65284;51.040;13.722;2024-03-06T12:58:12;38.80;;;16.90;;
76447;SDS011;65284;51.040;13.722;2024-03-06T13:00:39;42.97;;;18.48;;
76447;SDS011;65284;51.040;13.722;2024-03-06T13:03:06;38.13;;;17.65;;
76447;SDS011;65284;51.040;13.722;2024-03-06T13:05:33;41.65;;;18.75;;
76447;SDS011;65284;51.040;13.722;2024-03-06T13:07:59;43.55;;;18.77;;
76447;SDS011;65284;51.040;13.722;2024-03-06T13:10:26;53.60;;;24.55;;
76447;SDS011;65284;51.040;13.722;2024-03-06T13:12:52;54.92;;;26.35;;
76447;SDS011;65284;51.040;13.722;2024-03-06T13:15:19;42.40;;;19.17;;
76447;SDS011;65284;51.040;13.722;2024-03-06T13:17:46;39.53;;;18.77;;
76447;SDS011;65284;51.040;13.722;2024-03-06T13:20:12;39.42;;;18.48;;
76447;SDS011;65284;51.040;13.722;2024-03-06T13:22:40;42.72;;;19.50;;
76447;SDS011;65284;51.040;13.722;2024-03-06T13:25:07;38.65;;;18.88;;
76447;SDS011;65284;51.040;13.722;2024-03-06T13:27:33;41.45;;;19.25;;
76447;SDS011;65284;51.040;13.722;2024-03-06T13:30:00;40.20;;;18.30;;
76447;SDS011;65284;51.040;13.722;2024-03-06T13:32:31;38.40;;;17.95;;
76447;SDS011;65284;51.040;13.722;2024-03-06T13:34:57;36.50;;;16.95;;
76447;SDS011;65284;51.040;13.722;2024-03-06T13:37:24;41.85;;;17.88;;
76447;SDS011;65284;51.040;13.722;2024-03-06T13:39:50;41.50;;;17.17;;
76447;SDS011;65284;51.040;13.722;2024-03-06T13:42:17;36.95;;;18.30;;
76447;SDS011;65284;51.040;13.722;2024-03-06T13:44:43;35.97;;;17.27;;
76447;SDS011;65284;51.040;13.722;2024-03-06T13:47:14;38.63;;;18.05;;
76447;SDS011;65284;51.040;13.722;2024-03-06T13:49:42;34.20;;;16.60;;
76447;SDS011;65284;51.040;13.722;2024-03-06T13:52:09;34.17;;;15.85;;
76447;SDS011;65284;51.040;13.722;2024-03-06T13:54:40;35.00;;;16.75;;
76447;SDS011;65284;51.040;13.722;2024-03-06T13:57:08;35.33;;;15.95;;
76447;SDS011;65284;51.040;13.722;2024-03-06T13:59:35;27.48;;;14.13;;
76447;SDS011;65284;51.040;13.722;2024-03-06T14:02:02;32.63;;;14.30;;
76447;SDS011;65284;51.040;13.722;2024-03-06T14:04:32;28.42;;;13.90;;
76447;SDS011;65284;51.040;13.722;2024-03-06T14:06:59;31.55;;;14.35;;
76447;SDS011;65284;51.040;13.722;2024-03-06T14:09:26;31.02;;;14.88;;
76447;SDS011;65284;51.040;13.722;2024-03-06T14:11:53;27.08;;;12.30;;
76447;SDS011;65284;51.040;13.722;2024-03-06T14:14:20;27.73;;;13.35;;
76447;SDS011;65284;51.040;13.722;2024-03-06T14:16:47;27.10;;;13.02;;
76447;SDS011;65284;51.040;13.722;2024-03-06T14:19:14;28.52;;;12.95;;
76447;SDS011;65284;51.040;13.722;2024-03-06T14:21:40;29.80;;;13.65;;
76447;SDS011;65284;51.040;13.722;2024-03-06T14:24:07;29.33;;;13.27;;
76447;SDS011;65284;51.040;13.722;2024-03-06T14:26:33;28.17;;;14.05;;
76447;SDS011;65284;51.040;13.722;2024-03-06T14:29:00;30.25;;;14.38;;
76447;SDS011;65284;51.040;13.722;2024-03-06T14:31:28;31.45;;;13.55;;
76447;SDS011;65284;51.040;13.722;2024-03-06T14:33:55;28.05;;;14.38;;
76447;SDS011;65284;51.040;13.722;2024-03-06T14:36:22;27.60;;;13.68;;